Time;durP1;ratioP1;P1;durP2;ratioP2;P2;SDS_P1;SDS_P2;PMS_P1;PMS_P2;Temp;Humidity;BMP_temperature;BMP_pressure;BME280_temperature;BME280_humidity;BME280_pressure;Samples;Min_cycle;Max_cycle;Signal;HPM_P1;HPM_P2
2023/03/31 00:01:41;;;;;;;6.23;4.57;;;;;;;7.98;100.00;95993.59;5011306;28;102210;-60
2023/03/31 00:04:11;;;;;;;5.97;4.17;;;;;;;8.00;100.00;95992.31;5011199;28;105070;-60
2023/03/31 00:06:40;;;;;;;5.87;4.60;;;;;;;8.01;100.00;95993.91;5010679;28;105567;-60
2023/03/31 00:09:09;;;;;;;4.70;4.10;;;;;;;8.13;100.00;95991.94;5012664;28;101895;-60
2023/03/31 00:11:37;;;;;;;4.43;3.83;;;;;;;8.19;100.00;95990.19;5014044;28;103766;-60
2023/03/31 00:14:42;;;;;;;6.17;4.60;;;;;;;8.18;100.00;95970.81;5015745;28;101827;-60
2023/03/31 00:17:09;;;;;;;4.60;4.20;;;;;;;8.12;100.00;95971.03;5017770;28;102367;-60
2023/03/31 00:19:38;;;;;;;4.77;4.13;;;;;;;8.10;100.00;95981.03;5009479;28;105583;-60
2023/03/31 00:22:05;;;;;;;5.13;4.60;;;;;;;8.10;100.00;95968.63;5010941;28;101884;-60
2023/03/31 00:24:44;;;;;;;4.63;4.23;;;;;;;8.01;100.00;95956.06;5015802;28;102389;-60
2023/03/31 00:27:12;;;;;;;4.80;4.30;;;;;;;8.04;100.00;95951.06;5023591;28;102475;-60
2023/03/31 00:29:40;;;;;;;5.47;4.50;;;;;;;8.05;100.00;95946.53;5030890;28;101982;-60
2023/03/31 00:32:07;;;;;;;4.83;4.40;;;;;;;8.04;100.00;95929.06;5030585;28;104077;-60
2023/03/31 00:35:08;;;;;;;5.50;4.30;;;;;;;7.98;100.00;95922.09;5019472;27;101878;-60
2023/03/31 00:37:35;;;;;;;4.47;3.97;;;;;;;7.98;100.00;95930.88;5011038;28;104710;-60
2023/03/31 00:40:08;;;;;;;8.73;4.60;;;;;;;7.94;100.00;95923.63;5022501;28;105780;-60
2023/03/31 00:42:40;;;;;;;5.00;4.57;;;;;;;7.97;100.00;95918.66;5030758;28;102039;-60
2023/03/31 00:45:26;;;;;;;5.03;4.53;;;;;;;8.00;100.00;95896.97;5026148;28;104419;-60
2023/03/31 00:47:55;;;;;;;5.10;3.90;;;;;;;8.02;100.00;95904.69;5030040;28;104363;-60
2023/03/31 00:50:27;;;;;;;4.40;4.07;;;;;;;7.95;100.00;95909.34;4991270;28;101985;-60
2023/03/31 00:53:02;;;;;;;4.93;4.40;;;;;;;8.11;100.00;95903.19;5010605;28;105075;-60
2023/03/31 00:55:35;;;;;;;5.57;4.47;;;;;;;8.12;100.00;95886.28;4993459;28;105126;-60
2023/03/31 00:58:06;;;;;;;5.37;4.87;;;;;;;8.12;100.00;95883.63;4991556;28;104002;-60
2023/03/31 01:00:33;;;;;;;4.93;4.33;;;;;;;8.09;100.00;95876.19;5029592;28;104266;-60
2023/03/31 01:06:29;;;;;;;4.70;4.30;;;;;;;8.27;100.00;95873.22;5006025;28;104296;-60
2023/03/31 01:08:57;;;;;;;4.57;4.17;;;;;;;8.29;100.00;95869.28;5005890;28;105436;-60
2023/03/31 01:11:26;;;;;;;5.13;4.63;;;;;;;8.31;100.00;95859.25;5030350;28;101921;-60
2023/03/31 01:14:30;;;;;;;5.13;4.03;;;;;;;8.34;100.00;95861.41;5022448;28;104847;-60
2023/03/31 01:16:57;;;;;;;4.73;4.33;;;;;;;8.41;100.00;95863.84;5009515;28;103731;-60
2023/03/31 01:19:35;;;;;;;5.20;4.50;;;;;;;8.45;100.00;95857.00;5012967;28;102362;-60
2023/03/31 01:22:45;;;;;;;6.80;4.33;;;;;;;8.50;100.00;95854.41;5015351;28;104992;-60
2023/03/31 01:25:50;;;;;;;4.80;4.40;;;;;;;8.52;100.00;95849.66;5029796;28;101861;-60
2023/03/31 01:28:25;;;;;;;4.27;3.83;;;;;;;8.53;100.00;95844.13;4989821;28;105656;-60
2023/03/31 01:31:29;;;;;;;4.60;4.20;;;;;;;8.59;100.00;95847.59;5004423;28;104941;-60
2023/03/31 01:34:25;;;;;;;4.50;4.20;;;;;;;8.60;100.00;95850.00;5029537;28;101766;-60
2023/03/31 01:37:25;;;;;;;4.90;4.40;;;;;;;8.62;100.00;95847.13;5025490;27;103124;-60
2023/03/31 01:40:21;;;;;;;4.97;4.57;;;;;;;8.63;100.00;95844.22;5006309;28;105628;-60
2023/03/31 01:42:57;;;;;;;5.07;4.37;;;;;;;8.71;100.00;95840.28;5009696;28;102008;-60
2023/03/31 01:45:37;;;;;;;4.53;4.13;;;;;;;8.73;100.00;95828.38;5026529;28;104789;-60
2023/03/31 01:48:11;;;;;;;4.77;4.20;;;;;;;8.78;100.00;95830.31;5030036;28;101838;-60
2023/03/31 01:50:45;;;;;;;4.73;4.40;;;;;;;8.76;100.00;95835.03;5023729;28;101810;-60
2023/03/31 01:53:36;;;;;;;5.07;4.50;;;;;;;8.76;100.00;95824.44;5003088;28;101669;-60
2023/03/31 01:56:08;;;;;;;4.73;4.33;;;;;;;8.77;100.00;95813.59;5009564;28;101967;-60
2023/03/31 01:58:39;;;;;;;5.20;4.70;;;;;;;8.78;100.00;95819.69;5009641;28;104137;-60
2023/03/31 02:01:14;;;;;;;4.40;4.00;;;;;;;8.84;100.00;95830.06;5012048;28;103914;-60
2023/03/31 02:04:02;;;;;;;4.60;4.20;;;;;;;8.84;100.00;95813.38;5031122;27;101747;-60
2023/03/31 02:06:33;;;;;;;4.70;4.30;;;;;;;8.79;100.00;95800.06;5061905;27;105012;-60
2023/03/31 02:09:04;;;;;;;4.20;3.83;;;;;;;8.81;100.00;95790.00;5031889;28;104041;-60
2023/03/31 02:11:34;;;;;;;4.97;4.47;;;;;;;8.77;100.00;95789.72;5029409;28;104080;-60
2023/03/31 02:14:08;;;;;;;5.13;4.63;;;;;;;8.79;100.00;95789.47;5028301;28;105371;-60
2023/03/31 02:16:40;;;;;;;5.17;4.53;;;;;;;8.79;100.00;95776.22;5028986;28;101894;-60
2023/03/31 02:19:12;;;;;;;6.17;4.47;;;;;;;8.77;100.00;95786.28;5028618;28;103764;-60
2023/03/31 02:21:40;;;;;;;4.93;4.00;;;;;;;8.77;100.00;95779.13;5011866;27;102784;-60
2023/03/31 02:24:19;;;;;;;5.17;4.77;;;;;;;8.77;100.00;95781.00;5009131;28;102007;-60
2023/03/31 02:26:54;;;;;;;5.20;4.60;;;;;;;8.79;100.00;95768.28;5009273;28;103795;-60
2023/03/31 02:29:21;;;;;;;4.57;4.17;;;;;;;8.76;100.00;95768.75;5018913;28;105638;-60
2023/03/31 02:31:56;;;;;;;4.67;4.27;;;;;;;8.78;100.00;95761.38;5032644;28;101895;-60
2023/03/31 02:34:25;;;;;;;4.67;4.20;;;;;;;8.76;100.00;95755.50;5051307;27;105026;-60
2023/03/31 02:36:53;;;;;;;5.03;4.53;;;;;;;8.80;100.00;95756.59;5008892;28;102030;-60
2023/03/31 02:39:25;;;;;;;6.07;4.27;;;;;;;8.77;100.00;95741.22;5010123;28;104962;-60
2023/03/31 02:41:55;;;;;;;4.97;4.50;;;;;;;8.74;100.00;95739.88;5008498;28;105728;-60
2023/03/31 02:44:25;;;;;;;5.00;4.50;;;;;;;8.72;100.00;95738.53;5018025;28;102057;-60
2023/03/31 02:46:53;;;;;;;6.13;4.60;;;;;;;8.73;100.00;95726.88;5028999;28;105287;-60
2023/03/31 02:49:21;;;;;;;5.30;4.80;;;;;;;8.74;100.00;95728.47;5014984;28;105273;-60
2023/03/31 02:52:23;;;;;;;5.10;3.90;;;;;;;8.71;100.00;95723.66;5012411;28;101866;-60
2023/03/31 02:55:29;;;;;;;4.93;4.37;;;;;;;8.70;100.00;95722.06;5023872;28;105161;-60
2023/03/31 02:58:36;;;;;;;5.03;4.63;;;;;;;8.71;100.00;95721.00;5008569;28;101849;-60
2023/03/31 03:01:11;;;;;;;5.87;4.77;;;;;;;8.73;100.00;95729.53;5008841;28;105252;-60
2023/03/31 03:04:24;;;;;;;5.10;4.40;;;;;;;8.72;100.00;95735.88;5009296;28;105076;-60
2023/03/31 03:07:02;;;;;;;4.67;4.27;;;;;;;8.76;100.00;95735.13;5008552;28;101749;-60
2023/03/31 03:09:39;;;;;;;5.10;4.43;;;;;;;8.79;100.00;95731.94;5008671;28;103932;-60
2023/03/31 03:12:16;;;;;;;5.83;4.33;;;;;;;8.81;100.00;95737.81;5007853;28;105292;-60
2023/03/31 03:15:10;;;;;;;4.90;4.40;;;;;;;8.80;100.00;95735.41;5026296;28;101914;-60
2023/03/31 03:17:41;;;;;;;4.97;4.57;;;;;;;8.85;100.00;95736.25;5030592;28;103596;-60
2023/03/31 03:20:09;;;;;;;4.63;4.23;;;;;;;8.92;100.00;95730.69;5008130;28;101857;-60
2023/03/31 03:22:37;;;;;;;4.97;4.30;;;;;;;8.93;100.00;95750.84;5009423;28;104914;-60
2023/03/31 03:25:05;;;;;;;5.77;4.17;;;;;;;8.93;100.00;95750.84;5007724;28;105244;-60
2023/03/31 03:27:32;;;;;;;4.80;4.30;;;;;;;8.95;100.00;95762.81;5008256;28;101842;-60
2023/03/31 03:30:01;;;;;;;5.33;4.50;;;;;;;8.87;100.00;95775.75;5010036;28;104771;-60
2023/03/31 03:32:29;;;;;;;5.10;4.50;;;;;;;8.83;100.00;95746.28;5045228;27;104234;-60
2023/03/31 03:34:56;;;;;;;4.97;4.47;;;;;;;8.85;100.00;95754.00;5031803;28;101838;-60
2023/03/31 03:37:23;;;;;;;4.77;4.37;;;;;;;8.81;100.00;95745.75;5031221;28;104804;-60
2023/03/31 03:39:50;;;;;;;5.37;4.90;;;;;;;8.81;100.00;95739.66;5034539;28;105388;-60
2023/03/31 03:42:17;;;;;;;5.63;5.03;;;;;;;8.79;100.00;95731.94;5013301;28;104767;-60
2023/03/31 03:45:06;;;;;;;5.70;5.20;;;;;;;8.76;100.00;95721.84;5011008;28;105072;-60
2023/03/31 03:47:35;;;;;;;5.33;4.83;;;;;;;8.77;100.00;95718.16;5057586;27;101932;-60
2023/03/31 03:50:04;;;;;;;5.97;5.37;;;;;;;8.77;100.00;95709.41;5011582;28;104054;-60
2023/03/31 03:52:31;;;;;;;5.40;4.87;;;;;;;8.71;100.00;95713.06;5011298;28;104903;-60
2023/03/31 03:55:00;;;;;;;6.60;5.73;;;;;;;8.68;100.00;95708.28;5031499;28;101852;-60
2023/03/31 03:57:27;;;;;;;6.10;5.40;;;;;;;8.67;100.00;95704.81;5030985;28;105487;-60
2023/03/31 03:59:54;;;;;;;6.40;5.57;;;;;;;8.65;100.00;95706.13;5030895;28;104016;-60
2023/03/31 04:02:21;;;;;;;5.77;5.27;;;;;;;8.62;100.00;95711.97;5033076;28;101879;-60
2023/03/31 04:05:09;;;;;;;6.53;5.87;;;;;;;8.59;100.00;95707.16;5030496;28;104955;-60
2023/03/31 04:07:36;;;;;;;6.17;5.57;;;;;;;8.55;100.00;95711.34;5023278;28;102022;-60
2023/03/31 04:10:03;;;;;;;5.87;5.30;;;;;;;8.52;100.00;95720.63;5011120;28;104742;-60
2023/03/31 04:12:30;;;;;;;6.57;5.90;;;;;;;8.53;100.00;95711.63;5017270;28;104035;-60
2023/03/31 04:15:07;;;;;;;7.07;6.37;;;;;;;8.53;100.00;95711.63;5032537;28;102117;-60
2023/03/31 04:17:36;;;;;;;7.07;6.00;;;;;;;8.52;100.00;95715.34;5018454;28;104040;-60
2023/03/31 04:20:08;;;;;;;6.83;6.13;;;;;;;8.50;100.00;95712.13;5029837;28;105654;-60
2023/03/31 04:22:40;;;;;;;6.70;6.10;;;;;;;8.46;100.00;95715.53;5030599;28;102098;-60
2023/03/31 04:25:13;;;;;;;6.97;6.10;;;;;;;8.47;100.00;95717.94;5033896;28;105691;-60
2023/03/31 04:27:45;;;;;;;7.93;6.77;;;;;;;8.42;100.00;95719.75;5030729;28;101910;-60
2023/03/31 04:30:21;;;;;;;7.53;6.73;;;;;;;8.39;100.00;95714.97;5030679;28;105556;-60
2023/03/31 04:33:10;;;;;;;7.40;6.67;;;;;;;8.42;100.00;95711.78;5029526;28;105092;-60
2023/03/31 04:35:48;;;;;;;8.17;7.30;;;;;;;8.36;100.00;95707.50;5010769;28;102051;-60
2023/03/31 04:38:18;;;;;;;7.10;6.40;;;;;;;8.39;100.00;95685.81;5010549;28;103748;-60
2023/03/31 04:40:46;;;;;;;9.40;7.10;;;;;;;8.41;100.00;95658.00;5010001;28;105856;-60
2023/03/31 04:43:22;;;;;;;8.37;7.40;;;;;;;8.36;100.00;95643.94;5045171;27;102056;-60
2023/03/31 04:45:50;;;;;;;8.17;7.03;;;;;;;8.31;100.00;95633.28;4994093;28;105452;-60
2023/03/31 04:48:17;;;;;;;8.10;7.20;;;;;;;8.32;100.00;95619.00;5028240;28;105873;-60
2023/03/31 04:50:46;;;;;;;8.77;7.33;;;;;;;8.34;100.00;95614.25;5010710;28;103734;-60
2023/03/31 04:53:26;;;;;;;8.13;7.33;;;;;;;8.26;100.00;95609.41;5009893;28;105499;-60
2023/03/31 04:55:53;;;;;;;8.13;7.33;;;;;;;8.29;100.00;95593.03;5011575;28;102026;-60
2023/03/31 04:58:20;;;;;;;8.60;7.60;;;;;;;8.32;100.00;95595.16;5010399;28;103654;-60
2023/03/31 05:00:46;;;;;;;7.73;6.90;;;;;;;8.25;100.00;95594.59;5010798;28;105296;-60
2023/03/31 05:03:31;;;;;;;9.20;7.43;;;;;;;8.25;100.00;95589.28;5010520;28;103553;-60
2023/03/31 05:05:57;;;;;;;8.03;7.13;;;;;;;8.24;100.00;95585.84;5010296;28;103735;-60
2023/03/31 05:08:26;;;;;;;8.30;7.40;;;;;;;8.23;100.00;95570.22;5012991;28;105067;-60
2023/03/31 05:10:54;;;;;;;7.97;7.23;;;;;;;8.24;100.00;95569.16;5013604;28;102375;-60
2023/03/31 05:13:53;;;;;;;8.03;7.27;;;;;;;8.17;100.00;95573.81;5029547;28;105424;-60
2023/03/31 05:16:20;;;;;;;9.77;7.73;;;;;;;8.21;100.00;95580.25;4989968;28;101788;-60
2023/03/31 05:18:47;;;;;;;9.93;7.90;;;;;;;8.11;100.00;95588.91;4991321;28;105258;-60
2023/03/31 05:21:16;;;;;;;8.80;7.90;;;;;;;8.02;100.00;95589.63;4993377;28;102686;-60
2023/03/31 05:27:32;;;;;;;9.90;8.90;;;;;;;7.96;100.00;95574.75;5009674;28;103305;-60
2023/03/31 05:29:59;;;;;;;10.07;9.07;;;;;;;7.99;100.00;95561.81;5010682;28;101771;-60
2023/03/31 05:32:26;;;;;;;12.80;9.40;;;;;;;8.11;100.00;95557.13;5015817;28;102105;-60
2023/03/31 05:34:59;;;;;;;10.33;9.23;;;;;;;8.22;100.00;95550.06;5010578;28;102675;-60
2023/03/31 05:37:27;;;;;;;12.77;11.30;;;;;;;8.27;100.00;95534.22;5009722;28;102065;-60
2023/03/31 05:39:53;;;;;;;12.63;10.40;;;;;;;8.41;100.00;95528.19;5021158;28;104941;-60
2023/03/31 05:42:20;;;;;;;10.73;9.60;;;;;;;8.56;100.00;95514.25;5025981;28;105405;-60
2023/03/31 05:44:49;;;;;;;11.53;9.33;;;;;;;8.52;100.00;95521.09;5029797;28;101933;-60
2023/03/31 05:47:16;;;;;;;10.43;9.33;;;;;;;8.33;100.00;95512.78;5028222;28;105128;-60
2023/03/31 05:49:44;;;;;;;12.50;9.77;;;;;;;8.26;100.00;95504.28;5029138;28;105867;-60
2023/03/31 05:52:11;;;;;;;11.50;9.07;;;;;;;8.22;100.00;95502.38;5028057;27;101864;-60
2023/03/31 05:54:54;;;;;;;14.67;8.27;;;;;;;8.27;100.00;95492.63;5033277;27;102644;-60
2023/03/31 05:57:21;;;;;;;11.30;9.30;;;;;;;8.29;100.00;95477.28;5016905;28;101782;-60
2023/03/31 05:59:49;;;;;;;11.50;8.87;;;;;;;8.33;100.00;95459.00;5009304;28;106046;-60
2023/03/31 06:02:16;;;;;;;14.20;9.70;;;;;;;8.41;100.00;95469.91;5024695;28;104169;-60
2023/03/31 06:04:49;;;;;;;20.30;10.07;;;;;;;8.47;100.00;95468.09;5029481;28;101922;-60
2023/03/31 06:07:16;;;;;;;16.47;9.40;;;;;;;8.54;100.00;95439.50;4988281;28;105721;-60
2023/03/31 06:09:43;;;;;;;10.30;8.97;;;;;;;8.62;100.00;95423.09;4990046;28;103147;-60
2023/03/31 06:12:10;;;;;;;9.83;7.83;;;;;;;8.57;100.00;95415.91;5027189;28;102298;-60
2023/03/31 06:14:51;;;;;;;10.50;8.47;;;;;;;8.50;100.00;95407.44;5024854;28;102467;-60
2023/03/31 06:17:18;;;;;;;10.63;9.10;;;;;;;8.40;100.00;95401.31;5020470;28;104039;-60
2023/03/31 06:19:45;;;;;;;880.43;105.97;;;;;;;8.72;100.00;95386.03;5022649;28;102572;-60
2023/03/31 06:22:12;;;;;;;75.30;17.23;;;;;;;8.98;100.00;95384.97;5006767;28;104977;-60
2023/03/31 06:24:52;;;;;;;15.00;8.83;;;;;;;9.06;100.00;95382.59;5008017;28;101790;-60
2023/03/31 06:27:18;;;;;;;10.30;8.90;;;;;;;9.13;100.00;95393.75;5009242;28;104373;-60
2023/03/31 06:29:45;;;;;;;9.50;8.57;;;;;;;9.18;100.00;95396.41;5008846;28;105022;-60
2023/03/31 06:32:13;;;;;;;8.93;8.03;;;;;;;9.40;100.00;95378.34;5009132;28;102048;-60
2023/03/31 06:35:03;;;;;;;11.37;9.20;;;;;;;9.76;100.00;95371.91;5009341;28;104090;-60
2023/03/31 06:37:30;;;;;;;9.47;8.57;;;;;;;9.94;100.00;95368.69;5011094;28;105177;-60
2023/03/31 06:39:57;;;;;;;11.37;8.50;;;;;;;10.23;100.00;95353.72;5012562;28;102074;-60
2023/03/31 06:42:24;;;;;;;10.47;8.63;;;;;;;10.29;100.00;95339.34;5023991;28;105689;-60
2023/03/31 06:45:03;;;;;;;10.77;8.67;;;;;;;10.30;100.00;95334.84;5008808;28;101990;-60
2023/03/31 06:47:32;;;;;;;10.60;8.77;;;;;;;10.35;100.00;95319.63;5015433;28;104128;-60
2023/03/31 06:49:58;;;;;;;8.67;7.73;;;;;;;10.41;100.00;95313.22;5010179;28;104265;-60
2023/03/31 06:52:25;;;;;;;9.13;6.43;;;;;;;10.52;100.00;95316.63;5023963;28;101972;-60
2023/03/31 06:54:59;;;;;;;7.10;6.20;;;;;;;10.64;100.00;95306.44;5028939;28;105232;-60
2023/03/31 06:57:26;;;;;;;6.33;5.73;;;;;;;10.66;100.00;95296.31;5028103;28;102655;-59
2023/03/31 06:59:54;;;;;;;6.27;5.37;;;;;;;10.78;100.00;95300.22;5012003;28;103296;-59
2023/03/31 07:02:21;;;;;;;5.93;5.33;;;;;;;10.82;100.00;95305.78;5009767;28;105371;-59
2023/03/31 07:05:26;;;;;;;6.80;6.20;;;;;;;10.79;100.00;95295.72;5010395;28;101953;-60
2023/03/31 07:07:53;;;;;;;6.60;5.97;;;;;;;10.76;100.00;95290.94;5013145;28;104940;-59
2023/03/31 07:10:20;;;;;;;6.87;6.00;;;;;;;11.10;100.00;95297.84;5012470;28;103220;-60
2023/03/31 07:12:47;;;;;;;7.87;5.20;;;;;;;11.25;100.00;95275.59;5019688;28;101873;-60
2023/03/31 07:15:14;;;;;;;6.77;5.30;;;;;;;11.49;100.00;95265.78;5014604;28;104100;-60
2023/03/31 07:17:41;;;;;;;6.57;5.47;;;;;;;11.64;100.00;95284.28;5011203;28;105121;-60
2023/03/31 07:20:13;;;;;;;6.90;5.30;;;;;;;11.87;100.00;95272.81;5045450;27;102313;-59
2023/03/31 07:22:42;;;;;;;5.07;4.53;;;;;;;12.18;100.00;95266.84;5015600;28;103481;-60
2023/03/31 07:25:10;;;;;;;5.93;4.60;;;;;;;12.06;100.00;95263.00;5011797;28;102147;-60
2023/03/31 07:27:37;;;;;;;5.57;4.97;;;;;;;12.09;100.00;95265.88;5018294;28;106030;-60
2023/03/31 07:30:05;;;;;;;5.47;4.57;;;;;;;12.05;100.00;95266.75;5018586;28;105786;-60
2023/03/31 07:32:33;;;;;;;6.40;4.17;;;;;;;11.84;100.00;95265.41;5011698;28;101951;-60
2023/03/31 07:35:01;;;;;;;5.70;4.20;;;;;;;11.85;100.00;95256.34;5012608;28;104085;-60
2023/03/31 07:37:27;;;;;;;7.80;4.70;;;;;;;11.61;100.00;95259.00;5060824;27;105018;-60
2023/03/31 07:39:56;;;;;;;5.47;3.93;;;;;;;11.57;100.00;95254.50;5012513;28;101980;-60
2023/03/31 07:42:23;;;;;;;4.60;4.07;;;;;;;11.54;100.00;95255.88;5021026;28;103801;-60
2023/03/31 07:44:51;;;;;;;3.97;3.57;;;;;;;11.39;100.00;95234.75;5033315;28;105001;-60
2023/03/31 07:47:18;;;;;;;3.90;3.57;;;;;;;11.24;100.00;95258.84;5017985;28;102570;-60
2023/03/31 07:49:45;;;;;;;4.20;3.73;;;;;;;10.96;100.00;95296.09;5014940;28;103856;-60
2023/03/31 07:52:11;;;;;;;5.27;3.80;;;;;;;10.84;100.00;95320.38;5009104;28;102146;-60
2023/03/31 07:54:51;;;;;;;6.87;4.03;;;;;;;10.79;100.00;95332.94;5012514;28;103091;-60
2023/03/31 07:57:19;;;;;;;6.50;3.70;;;;;;;10.73;100.00;95348.13;5010113;28;105280;-60
2023/03/31 07:59:47;;;;;;;7.13;5.20;;;;;;;10.56;100.00;95368.97;5010826;28;102040;-60
2023/03/31 08:02:16;;;;;;;5.67;5.07;;;;;;;10.48;100.00;95374.06;5010803;28;105007;-60
2023/03/31 08:04:59;;;;;;;8.00;5.80;;;;;;;10.38;100.00;95390.84;5022233;28;105834;-59
2023/03/31 08:07:29;;;;;;;7.63;6.17;;;;;;;10.29;100.00;95416.41;5013790;28;102192;-60
2023/03/31 08:09:59;;;;;;;6.63;5.50;;;;;;;10.20;100.00;95422.56;5017671;28;105066;-59
2023/03/31 08:12:28;;;;;;;6.80;6.00;;;;;;;10.20;100.00;95403.94;5009693;28;101897;-60
2023/03/31 08:14:55;;;;;;;6.67;6.00;;;;;;;10.20;100.00;95406.59;5009683;28;104727;-60
2023/03/31 08:17:22;;;;;;;6.53;5.80;;;;;;;10.25;100.00;95415.34;5009452;28;105191;-60
2023/03/31 08:19:50;;;;;;;6.73;5.87;;;;;;;10.29;100.00;95386.38;5009351;28;102440;-60
2023/03/31 08:22:17;;;;;;;6.47;5.60;;;;;;;10.27;100.00;95377.88;5009559;28;104965;-60
2023/03/31 08:24:44;;;;;;;6.03;5.20;;;;;;;10.21;100.00;95373.66;5010801;28;102134;-59
2023/03/31 08:27:11;;;;;;;8.73;7.07;;;;;;;10.28;100.00;95368.84;5010059;28;101868;-60
2023/03/31 08:29:40;;;;;;;17.30;15.50;;;;;;;10.38;100.00;95342.22;5012610;28;104024;-60
2023/03/31 08:32:07;;;;;;;9.67;6.57;;;;;;;10.44;100.00;95331.28;5009857;28;102094;-60
2023/03/31 08:34:35;;;;;;;7.07;6.10;;;;;;;10.43;100.00;95328.91;5009860;28;105537;-60
2023/03/31 08:37:02;;;;;;;6.03;5.20;;;;;;;10.39;100.00;95303.94;5010934;28;102635;-60
2023/03/31 08:39:28;;;;;;;5.53;4.90;;;;;;;10.39;100.00;95294.13;5009492;28;102036;-60
2023/03/31 08:42:00;;;;;;;17.87;6.30;;;;;;;10.47;100.00;95300.72;5009424;28;104038;-60
2023/03/31 08:44:32;;;;;;;6.60;5.97;;;;;;;10.53;100.00;95291.63;5010414;28;102732;-59
2023/03/31 08:47:02;;;;;;;8.43;5.00;;;;;;;10.56;100.00;95281.25;5009676;28;101901;-60
2023/03/31 08:49:44;;;;;;;87.13;11.57;;;;;;;10.69;100.00;95280.59;5011034;28;103074;-60
2023/03/31 08:52:14;;;;;;;9.93;5.27;;;;;;;10.74;100.00;95307.16;5045254;27;103951;-60
2023/03/31 08:54:46;;;;;;;5.07;4.57;;;;;;;10.71;100.00;95322.88;5009337;28;105162;-60
2023/03/31 08:57:18;;;;;;;5.47;4.97;;;;;;;10.53;100.00;95334.16;5009187;28;104746;-60
2023/03/31 08:59:46;;;;;;;6.20;5.20;;;;;;;10.55;100.00;95335.47;5010621;28;101762;-59
2023/03/31 09:02:24;;;;;;;8.47;5.63;;;;;;;10.53;100.00;95350.88;5009389;28;103580;-59
2023/03/31 09:05:05;;;;;;;8.40;7.50;;;;;;;10.30;100.00;95329.53;5010251;28;103310;-60
2023/03/31 09:07:39;;;;;;;10.03;8.57;;;;;;;10.15;100.00;95326.94;5010534;28;101950;-60
2023/03/31 09:10:23;;;;;;;9.73;7.90;;;;;;;10.09;100.00;95296.16;5010628;28;102327;-59
2023/03/31 09:12:57;;;;;;;7.00;6.30;;;;;;;10.07;100.00;95317.66;5010112;28;102513;-59
2023/03/31 09:15:28;;;;;;;7.30;6.50;;;;;;;10.03;100.00;95329.09;5012608;28;102064;-60
2023/03/31 09:18:01;;;;;;;7.93;7.20;;;;;;;10.07;100.00;95346.88;5008467;28;105185;-60
2023/03/31 09:20:32;;;;;;;6.87;6.17;;;;;;;10.11;100.00;95320.56;5008410;28;102244;-60
2023/03/31 09:23:06;;;;;;;5.87;4.47;;;;;;;10.36;100.00;95309.81;5009054;28;105783;-60
2023/03/31 09:25:38;;;;;;;5.60;5.10;;;;;;;10.29;100.00;95311.97;5009873;28;103097;-59
2023/03/31 09:28:12;;;;;;;6.50;4.60;;;;;;;10.43;100.00;95315.63;5008149;28;101991;-60
2023/03/31 09:30:41;;;;;;;6.33;5.37;;;;;;;10.49;100.00;95312.66;5008287;28;105152;-59
2023/03/31 09:33:14;;;;;;;5.20;4.10;;;;;;;10.93;100.00;95317.94;5008185;28;104146;-60
2023/03/31 09:35:41;;;;;;;5.90;4.50;;;;;;;11.07;100.00;95310.91;5012433;28;102332;-60
2023/03/31 09:38:10;;;;;;;4.63;4.20;;;;;;;11.29;100.00;95300.59;5008265;28;105289;-60
2023/03/31 09:40:36;;;;;;;4.90;4.43;;;;;;;11.57;100.00;95310.44;5009728;28;101880;-60
2023/03/31 09:43:06;;;;;;;4.50;3.97;;;;;;;11.75;100.00;95307.06;5008686;28;105407;-60
2023/03/31 09:45:33;;;;;;;4.73;4.20;;;;;;;11.86;100.00;95306.66;5008017;28;105213;-60
2023/03/31 09:48:05;;;;;;;5.17;4.17;;;;;;;11.99;100.00;95281.22;5008735;28;101910;-60
2023/03/31 09:50:40;;;;;;;7.73;4.30;;;;;;;12.08;100.00;95280.28;5008139;28;104969;-60
2023/03/31 09:53:18;;;;;;;6.23;4.27;;;;;;;12.30;100.00;95269.06;4999253;28;105707;-60
2023/03/31 09:55:47;;;;;;;7.37;4.30;;;;;;;12.52;100.00;95271.94;5021496;28;101880;-59
2023/03/31 09:58:16;;;;;;;6.33;3.93;;;;;;;12.67;100.00;95272.53;5031489;28;105571;-59
2023/03/31 10:00:56;;;;;;;6.53;4.17;;;;;;;12.80;100.00;95265.66;5015704;28;101875;-60
2023/03/31 10:03:26;;;;;;;5.37;4.20;;;;;;;12.87;100.00;95272.19;5026461;28;105149;-60
2023/03/31 10:05:57;;;;;;;5.93;3.83;;;;;;;12.92;100.00;95276.66;5020762;28;105755;-59
2023/03/31 10:08:30;;;;;;;5.00;4.20;;;;;;;12.97;100.00;95264.06;5008509;28;101784;-59
2023/03/31 10:11:07;;;;;;;5.30;3.87;;;;;;;13.07;100.00;95257.75;5019483;28;105175;-60
2023/03/31 10:13:42;;;;;;;4.60;3.63;;;;;;;13.10;100.00;95236.63;5015215;28;105189;-60
2023/03/31 10:16:13;;;;;;;4.40;3.67;;;;;;;13.17;100.00;95226.34;5013551;28;102095;-60
2023/03/31 10:18:42;;;;;;;5.43;3.80;;;;;;;13.20;100.00;95231.09;5008370;28;103942;-60
2023/03/31 10:21:22;;;;;;;4.93;4.00;;;;;;;13.22;100.00;95220.94;5010526;28;103929;-60
2023/03/31 10:23:50;;;;;;;5.63;3.83;;;;;;;13.29;100.00;95212.50;5008027;28;104194;-60
2023/03/31 10:26:20;;;;;;;5.13;3.90;;;;;;;13.24;100.00;95207.28;5011478;28;103701;-59
2023/03/31 10:28:51;;;;;;;4.27;3.87;;;;;;;13.24;100.00;95212.63;5022461;28;101847;-61
2023/03/31 10:31:19;;;;;;;5.00;3.60;;;;;;;13.21;100.00;95211.34;5020922;28;103565;-61
2023/03/31 10:33:48;;;;;;;4.03;3.60;;;;;;;13.21;100.00;95199.88;5009962;28;102546;-60
2023/03/31 10:36:22;;;;;;;4.77;3.70;;;;;;;13.23;100.00;95211.03;5008272;28;101883;-60
2023/03/31 10:38:51;;;;;;;4.90;3.83;;;;;;;13.22;100.00;95206.78;5010725;28;105084;-60
2023/03/31 10:41:20;;;;;;;4.77;3.93;;;;;;;13.26;100.00;95195.22;5020568;28;105103;-60
2023/03/31 10:43:51;;;;;;;4.97;3.50;;;;;;;13.25;100.00;95188.28;5036072;27;102039;-59
2023/03/31 10:46:18;;;;;;;3.90;3.37;;;;;;;13.21;100.00;95187.31;5021791;28;103711;-60
2023/03/31 10:48:45;;;;;;;4.93;3.70;;;;;;;13.19;100.00;95184.13;5011707;28;102020;-60
2023/03/31 10:51:18;;;;;;;4.13;3.53;;;;;;;13.20;100.00;95182.28;5016541;28;105098;-60
2023/03/31 10:53:48;;;;;;;4.00;3.50;;;;;;;13.11;100.00;95162.69;5030845;28;105203;-60
2023/03/31 10:56:34;;;;;;;5.87;4.13;;;;;;;13.13;100.00;95155.19;5033026;28;102235;-60
2023/03/31 10:59:17;;;;;;;3.77;3.37;;;;;;;13.06;100.00;95168.91;5031771;28;105672;-60
2023/03/31 11:01:59;;;;;;;3.80;3.47;;;;;;;13.04;100.00;95162.28;5023792;28;105425;-59
2023/03/31 11:04:40;;;;;;;3.70;3.40;;;;;;;13.05;100.00;95155.84;5031463;28;102212;-60
2023/03/31 11:07:18;;;;;;;3.97;3.57;;;;;;;12.98;100.00;95156.22;5033673;28;105132;-60
2023/03/31 11:09:56;;;;;;;4.37;3.80;;;;;;;13.03;100.00;95155.38;5027603;28;102239;-60
2023/03/31 11:12:29;;;;;;;4.23;3.80;;;;;;;13.04;100.00;95151.59;5023387;28;104044;-59
2023/03/31 11:15:07;;;;;;;3.80;3.50;;;;;;;12.99;100.00;95146.34;5010366;28;105254;-59
2023/03/31 11:17:51;;;;;;;4.50;3.87;;;;;;;13.00;100.00;95142.59;5011210;28;101831;-59
2023/03/31 11:20:27;;;;;;;4.37;3.53;;;;;;;13.01;100.00;95130.84;5013956;28;105589;-59
2023/03/31 11:23:02;;;;;;;4.00;3.27;;;;;;;13.00;100.00;95113.25;5020407;28;105457;-60
2023/03/31 11:25:38;;;;;;;3.40;3.10;;;;;;;13.00;100.00;95122.06;5030653;28;101843;-59
2023/03/31 11:28:26;;;;;;;3.87;2.83;;;;;;;13.00;100.00;95105.25;5020285;28;104904;-59
2023/03/31 11:31:03;;;;;;;4.80;3.00;;;;;;;13.07;100.00;95095.75;5014377;28;101759;-60
2023/03/31 11:33:51;;;;;;;4.07;3.07;;;;;;;13.14;100.00;95074.03;5012474;28;103509;-60
2023/03/31 11:36:30;;;;;;;3.90;2.70;;;;;;;13.09;100.00;95068.78;5007860;28;103093;-60
2023/03/31 11:39:13;;;;;;;4.23;3.03;;;;;;;13.13;100.00;95053.75;5009191;28;102308;-60
2023/03/31 11:41:45;;;;;;;5.07;2.57;;;;;;;13.09;100.00;95064.22;5010636;28;102594;-60
2023/03/31 11:44:15;;;;;;;4.67;4.17;;;;;;;13.07;100.00;95061.06;5010820;28;103070;-60
2023/03/31 11:46:47;;;;;;;7.47;6.77;;;;;;;13.00;100.00;95075.88;5011282;28;102151;-60
2023/03/31 11:49:20;;;;;;;4.70;4.10;;;;;;;12.99;100.00;95091.13;5009299;28;103915;-60
2023/03/31 11:51:54;;;;;;;3.57;2.67;;;;;;;12.86;100.00;95115.88;5010204;28;105446;-59
2023/03/31 11:54:28;;;;;;;3.40;3.10;;;;;;;12.83;100.00;95139.69;5010163;28;103709;-60